createdAt,value
2023-03-27T00:00:15.265Z,16.46
2023-03-27T00:01:15.257Z,16.46
2023-03-27T00:02:15.292Z,16.45
2023-03-27T00:03:15.346Z,16.48
2023-03-27T00:04:18.301Z,16.45
2023-03-27T00:05:15.208Z,16.45
2023-03-27T00:06:15.204Z,16.46
2023-03-27T00:07:15.187Z,16.45
2023-03-27T00:08:15.186Z,16.46
2023-03-27T00:09:15.198Z,16.46
2023-03-27T00:10:15.162Z,16.46
2023-03-27T00:11:15.151Z,16.45
2023-03-27T00:12:15.135Z,16.46
2023-03-27T00:13:15.126Z,16.46
2023-03-27T00:14:15.114Z,16.43
2023-03-27T00:15:15.162Z,16.46
2023-03-27T00:16:15.121Z,16.45
2023-03-27T00:17:15.085Z,16.45
2023-03-27T00:18:15.072Z,16.45
2023-03-27T00:19:15.066Z,16.45
2023-03-27T00:20:15.049Z,16.45
2023-03-27T00:21:15.065Z,16.45
2023-03-27T00:22:15.029Z,16.45
2023-03-27T00:23:15.019Z,16.45
2023-03-27T00:24:15.005Z,16.43
2023-03-27T00:25:15.015Z,16.43
2023-03-27T00:26:15.007Z,16.45
2023-03-27T00:27:14.974Z,16.43
2023-03-27T00:28:14.961Z,16.43
2023-03-27T00:29:14.954Z,16.45
2023-03-27T00:30:14.941Z,16.45
2023-03-27T00:31:15.080Z,16.45
2023-03-27T00:32:14.925Z,16.45
2023-03-27T00:33:14.911Z,16.45
2023-03-27T00:34:14.896Z,16.46
2023-03-27T00:35:14.888Z,16.45
2023-03-27T00:36:14.908Z,16.43
2023-03-27T00:37:14.880Z,16.43
2023-03-27T00:38:14.855Z,16.43
2023-03-27T00:39:14.852Z,16.45
2023-03-27T00:40:14.859Z,16.45
2023-03-27T00:41:14.879Z,16.43
2023-03-27T00:42:14.830Z,16.43
2023-03-27T00:43:14.803Z,16.45
2023-03-27T00:44:14.809Z,16.43
2023-03-27T00:45:14.796Z,16.43
2023-03-27T00:46:14.865Z,16.45
2023-03-27T00:47:14.785Z,16.43
2023-03-27T00:48:14.765Z,16.43
2023-03-27T00:49:14.771Z,16.42
2023-03-27T00:50:14.727Z,16.43
2023-03-27T00:51:14.717Z,16.43
2023-03-27T00:52:14.704Z,16.43
2023-03-27T00:53:14.774Z,16.43
2023-03-27T00:54:14.682Z,16.43
2023-03-27T00:55:14.678Z,16.43
2023-03-27T00:56:14.665Z,16.43
2023-03-27T00:57:14.660Z,16.45
2023-03-27T00:58:14.640Z,16.43
2023-03-27T00:59:14.663Z,16.43
2023-03-27T01:00:14.618Z,16.43
2023-03-27T01:01:14.644Z,16.43
2023-03-27T01:02:14.622Z,16.43
2023-03-27T01:03:14.677Z,16.43
2023-03-27T01:04:14.597Z,16.42
2023-03-27T01:05:14.568Z,16.43
2023-03-27T01:06:14.549Z,16.43
2023-03-27T01:07:14.541Z,16.43
2023-03-27T01:08:14.529Z,16.42
2023-03-27T01:09:20.193Z,16.42
2023-03-27T01:10:15.508Z,16.42
2023-03-27T01:11:14.494Z,16.41
2023-03-27T01:12:14.485Z,16.43
2023-03-27T01:13:14.474Z,16.42
2023-03-27T01:14:14.463Z,16.41
2023-03-27T01:15:14.480Z,16.41
2023-03-27T01:16:14.490Z,16.43
2023-03-27T01:17:14.505Z,16.41
2023-03-27T01:18:14.430Z,16.42
2023-03-27T01:19:14.633Z,16.41
2023-03-27T01:20:14.438Z,16.42
2023-03-27T01:21:14.385Z,16.42
2023-03-27T01:22:14.395Z,16.43
2023-03-27T01:23:14.368Z,16.42
2023-03-27T01:24:14.357Z,16.43
2023-03-27T01:25:14.371Z,16.42
2023-03-27T01:26:14.335Z,16.42
2023-03-27T01:27:14.319Z,16.42
2023-03-27T01:28:14.309Z,16.42
2023-03-27T01:29:14.298Z,16.41
2023-03-27T01:30:14.308Z,16.43
2023-03-27T01:31:14.311Z,16.42
2023-03-27T01:32:14.286Z,16.41
2023-03-27T01:33:14.256Z,16.42
2023-03-27T01:34:14.244Z,16.42
2023-03-27T01:35:14.258Z,16.42
2023-03-27T01:36:14.223Z,16.42
2023-03-27T01:37:14.270Z,16.42
2023-03-27T01:38:14.202Z,16.42
2023-03-27T01:39:14.197Z,16.42
2023-03-27T01:40:14.181Z,16.42
2023-03-27T01:41:14.174Z,16.41
2023-03-27T01:42:14.183Z,16.41
2023-03-27T01:43:14.166Z,16.41
2023-03-27T01:44:14.168Z,16.42
2023-03-27T01:45:14.131Z,16.41
2023-03-27T01:46:14.224Z,16.42
2023-03-27T01:47:14.206Z,16.41
2023-03-27T01:48:14.140Z,16.42
2023-03-27T01:49:14.141Z,16.41
2023-03-27T01:50:14.137Z,16.41
2023-03-27T01:51:14.118Z,16.39
2023-03-27T01:52:14.272Z,16.41
2023-03-27T01:53:14.054Z,16.42
2023-03-27T01:54:14.421Z,16.42
2023-03-27T01:55:14.023Z,16.41
2023-03-27T01:56:20.951Z,16.41
2023-03-27T01:57:14.054Z,16.41
2023-03-27T01:58:14.104Z,16.41
2023-03-27T01:59:13.979Z,16.41
2023-03-27T02:00:18.350Z,16.39
2023-03-27T02:01:14.985Z,16.41
2023-03-27T02:02:13.949Z,16.39
2023-03-27T02:03:13.937Z,16.41
2023-03-27T02:04:13.946Z,16.41
2023-03-27T02:05:13.982Z,16.41
2023-03-27T02:06:13.908Z,16.39
2023-03-27T02:07:13.921Z,16.41
2023-03-27T02:08:13.885Z,16.39
2023-03-27T02:09:13.897Z,16.39
2023-03-27T02:10:13.867Z,16.41
2023-03-27T02:11:13.849Z,16.39
2023-03-27T02:12:13.841Z,16.39
2023-03-27T02:13:13.856Z,16.39
2023-03-27T02:14:13.836Z,16.38
2023-03-27T02:15:23.723Z,16.39
2023-03-27T02:16:14.860Z,16.39
2023-03-27T02:17:13.787Z,16.38
2023-03-27T02:18:13.774Z,16.39
2023-03-27T02:19:13.765Z,16.39
2023-03-27T02:20:13.782Z,16.39
2023-03-27T02:21:13.765Z,16.39
2023-03-27T02:22:13.733Z,16.38
2023-03-27T02:23:13.749Z,16.39
2023-03-27T02:24:13.710Z,16.39
2023-03-27T02:25:13.747Z,16.39
2023-03-27T02:26:13.688Z,16.41
2023-03-27T02:27:13.701Z,16.39
2023-03-27T02:28:13.667Z,16.39
2023-03-27T02:29:13.661Z,16.41
2023-03-27T02:30:13.651Z,16.39
2023-03-27T02:31:33.251Z,16.39
2023-03-27T02:32:14.714Z,16.39
2023-03-27T02:33:13.630Z,16.38
2023-03-27T02:34:13.604Z,16.39
2023-03-27T02:35:13.592Z,16.39
2023-03-27T02:36:13.695Z,16.39
2023-03-27T02:37:13.587Z,16.39
2023-03-27T02:38:13.571Z,16.39
2023-03-27T02:39:13.577Z,16.38
2023-03-27T02:40:13.540Z,16.39
2023-03-27T02:41:13.555Z,16.39
2023-03-27T02:42:13.541Z,16.39
2023-03-27T02:43:13.507Z,16.41
2023-03-27T02:44:13.500Z,16.38
2023-03-27T02:45:13.500Z,16.39
2023-03-27T02:46:13.577Z,16.39
2023-03-27T02:47:13.463Z,16.41
2023-03-27T02:48:13.487Z,16.39
2023-03-27T02:49:13.447Z,16.38
2023-03-27T02:50:13.479Z,16.39
2023-03-27T02:51:13.421Z,16.38
2023-03-27T02:52:13.413Z,16.39
2023-03-27T02:53:13.405Z,16.38
2023-03-27T02:54:13.393Z,16.39
2023-03-27T02:55:13.425Z,16.38
2023-03-27T02:56:13.371Z,16.38
2023-03-27T02:57:13.367Z,16.38
2023-03-27T02:58:13.411Z,16.35
2023-03-27T02:59:13.411Z,16.39
2023-03-27T03:00:13.338Z,16.38
2023-03-27T03:01:13.401Z,16.38
2023-03-27T03:02:13.458Z,16.38
2023-03-27T03:03:13.382Z,16.38
2023-03-27T03:04:13.285Z,16.39
2023-03-27T03:05:13.281Z,16.38
2023-03-27T03:06:13.327Z,16.35
2023-03-27T03:07:13.254Z,16.38
2023-03-27T03:08:13.249Z,16.38
2023-03-27T03:09:13.237Z,16.38
2023-03-27T03:10:13.221Z,16.39
2023-03-27T03:11:13.362Z,16.38
2023-03-27T03:12:13.202Z,16.38
2023-03-27T03:13:13.191Z,16.38
2023-03-27T03:14:13.188Z,16.35
2023-03-27T03:15:13.188Z,16.34
2023-03-27T03:16:13.208Z,16.38
2023-03-27T03:17:13.213Z,16.35
2023-03-27T03:18:13.135Z,16.38
2023-03-27T03:19:13.137Z,16.35
2023-03-27T03:20:13.113Z,16.38
2023-03-27T03:21:13.127Z,16.35
2023-03-27T03:22:13.210Z,16.38
2023-03-27T03:23:13.080Z,16.34
2023-03-27T03:24:13.072Z,16.38
2023-03-27T03:25:13.065Z,16.38
2023-03-27T03:26:13.052Z,16.35
2023-03-27T03:27:13.085Z,16.38
2023-03-27T03:28:13.037Z,16.35
2023-03-27T03:29:13.085Z,16.38
2023-03-27T03:30:16.587Z,16.34
2023-03-27T03:31:13.063Z,16.35
2023-03-27T03:32:12.999Z,16.34
2023-03-27T03:33:12.981Z,16.38
2023-03-27T03:34:13.064Z,16.35
2023-03-27T03:35:12.953Z,16.35
2023-03-27T03:36:12.941Z,16.38
2023-03-27T03:37:12.932Z,16.35
2023-03-27T03:38:12.917Z,16.35
2023-03-27T03:39:12.976Z,16.35
2023-03-27T03:40:12.940Z,16.38
2023-03-27T03:41:12.888Z,16.35
2023-03-27T03:42:22.330Z,16.38
2023-03-27T03:43:13.891Z,16.34
2023-03-27T03:44:12.858Z,16.35
2023-03-27T03:45:12.877Z,16.35
2023-03-27T03:46:12.866Z,16.35
2023-03-27T03:47:12.824Z,16.35
2023-03-27T03:48:12.812Z,16.35
2023-03-27T03:49:12.805Z,16.35
2023-03-27T03:50:12.800Z,16.35
2023-03-27T03:51:12.801Z,16.35
2023-03-27T03:52:12.773Z,16.38
2023-03-27T03:53:12.761Z,16.35
2023-03-27T03:54:12.746Z,16.34
2023-03-27T03:55:12.865Z,16.35
2023-03-27T03:56:12.726Z,16.35
2023-03-27T03:57:12.764Z,16.34
2023-03-27T03:58:12.711Z,16.35
2023-03-27T03:59:12.962Z,16.35
2023-03-27T04:00:12.680Z,16.33
2023-03-27T04:01:12.691Z,16.34
2023-03-27T04:02:12.724Z,16.34
2023-03-27T04:03:12.700Z,16.34
2023-03-27T04:04:12.640Z,16.34
2023-03-27T04:05:12.643Z,16.34
2023-03-27T04:06:12.647Z,16.34
2023-03-27T04:07:12.604Z,16.35
2023-03-27T04:08:12.602Z,16.34
2023-03-27T04:09:12.581Z,16.34
2023-03-27T04:10:12.575Z,16.34
2023-03-27T04:11:12.558Z,16.34
2023-03-27T04:12:12.570Z,16.33
2023-03-27T04:13:12.539Z,16.34
2023-03-27T04:14:12.535Z,16.34
2023-03-27T04:15:12.542Z,16.35
2023-03-27T04:16:12.555Z,16.34
2023-03-27T04:17:12.530Z,16.33
2023-03-27T04:18:12.699Z,16.34
2023-03-27T04:19:12.483Z,16.34
2023-03-27T04:20:12.463Z,16.34
2023-03-27T04:21:12.455Z,16.34
2023-03-27T04:22:12.471Z,16.33
2023-03-27T04:23:12.431Z,16.33
2023-03-27T04:24:12.449Z,16.33
2023-03-27T04:25:12.412Z,16.33
2023-03-27T04:26:12.608Z,16.34
2023-03-27T04:27:12.387Z,16.34
2023-03-27T04:28:12.409Z,16.34
2023-03-27T04:29:12.371Z,16.33
2023-03-27T04:30:12.360Z,16.34
2023-03-27T04:31:12.388Z,16.34
2023-03-27T04:32:12.358Z,16.34
2023-03-27T04:33:12.332Z,16.33
2023-03-27T04:34:12.317Z,16.33
2023-03-27T04:35:12.331Z,16.33
2023-03-27T04:36:12.369Z,16.33
2023-03-27T04:37:12.309Z,16.34
2023-03-27T04:38:12.300Z,16.33
2023-03-27T04:39:12.273Z,16.34
2023-03-27T04:40:12.254Z,16.33
2023-03-27T04:41:12.247Z,16.33
2023-03-27T04:42:12.236Z,16.35
2023-03-27T04:43:13.189Z,16.35
2023-03-27T04:44:13.034Z,16.34
2023-03-27T04:45:12.206Z,16.34
2023-03-27T04:46:12.190Z,16.34
2023-03-27T04:47:14.498Z,16.34
2023-03-27T04:48:12.196Z,16.33
2023-03-27T04:49:12.960Z,16.34
2023-03-27T04:50:12.148Z,16.34
2023-03-27T04:51:12.140Z,16.33
2023-03-27T04:52:12.133Z,16.34
2023-03-27T04:53:12.169Z,16.33
2023-03-27T04:54:12.112Z,16.33
2023-03-27T04:55:12.122Z,16.33
2023-03-27T04:56:12.095Z,16.34
2023-03-27T04:57:12.609Z,16.33
2023-03-27T04:58:12.100Z,16.33
2023-03-27T04:59:12.055Z,16.31
2023-03-27T05:00:12.053Z,16.33
2023-03-27T05:01:12.059Z,16.34
2023-03-27T05:02:12.025Z,16.34
2023-03-27T05:03:12.166Z,16.31
2023-03-27T05:04:12.051Z,16.33
2023-03-27T05:05:12.046Z,16.33
2023-03-27T05:06:12.064Z,16.34
2023-03-27T05:07:11.978Z,16.33
2023-03-27T05:08:11.987Z,16.31
2023-03-27T05:09:11.943Z,16.33
2023-03-27T05:10:11.989Z,16.31
2023-03-27T05:11:11.928Z,16.33
2023-03-27T05:12:11.927Z,16.33
2023-03-27T05:13:11.903Z,16.30
2023-03-27T05:14:13.182Z,16.31
2023-03-27T05:15:11.877Z,16.31
2023-03-27T05:16:11.933Z,16.31
2023-03-27T05:17:11.864Z,16.33
2023-03-27T05:18:11.923Z,16.31
2023-03-27T05:19:11.924Z,16.33
2023-03-27T05:20:11.985Z,16.33
2023-03-27T05:21:11.826Z,16.31
2023-03-27T05:22:11.802Z,16.30
2023-03-27T05:23:11.790Z,16.31
2023-03-27T05:24:11.785Z,16.31
2023-03-27T05:25:12.638Z,16.33
2023-03-27T05:26:11.761Z,16.31
2023-03-27T05:27:11.753Z,16.31
2023-03-27T05:28:13.712Z,16.33
2023-03-27T05:29:11.731Z,16.33
2023-03-27T05:30:11.718Z,16.31
2023-03-27T05:31:11.811Z,16.31
2023-03-27T05:32:11.699Z,16.31
2023-03-27T05:33:11.685Z,16.31
2023-03-27T05:34:12.355Z,16.31
2023-03-27T05:35:12.555Z,16.31
2023-03-27T05:36:11.652Z,16.31
2023-03-27T05:37:11.642Z,16.31
2023-03-27T05:38:11.632Z,16.31
2023-03-27T05:39:11.622Z,16.31
2023-03-27T05:40:13.171Z,16.31
2023-03-27T05:41:11.604Z,16.33
2023-03-27T05:42:11.586Z,16.30
2023-03-27T05:43:11.688Z,16.30
2023-03-27T05:44:11.588Z,16.31
2023-03-27T05:45:11.557Z,16.31
2023-03-27T05:46:11.703Z,16.31
2023-03-27T05:47:11.536Z,16.30
2023-03-27T05:48:11.541Z,16.31
2023-03-27T05:49:11.520Z,16.28
2023-03-27T05:50:11.500Z,16.30
2023-03-27T05:51:11.726Z,16.31
2023-03-27T05:52:11.588Z,16.31
2023-03-27T05:53:11.566Z,16.31
2023-03-27T05:54:11.460Z,16.30
2023-03-27T05:55:11.464Z,16.31
2023-03-27T05:56:11.439Z,16.30
2023-03-27T05:57:11.480Z,16.31
2023-03-27T05:58:11.822Z,16.30
2023-03-27T05:59:11.410Z,16.30
2023-03-27T06:00:11.400Z,16.30
2023-03-27T06:01:11.399Z,16.31
2023-03-27T06:02:13.158Z,16.31
2023-03-27T06:03:11.541Z,16.30
2023-03-27T06:04:11.438Z,16.30
2023-03-27T06:05:11.344Z,16.30
2023-03-27T06:06:11.334Z,16.30
2023-03-27T06:07:13.504Z,16.31
2023-03-27T06:08:11.312Z,16.31
2023-03-27T06:09:11.297Z,16.30
2023-03-27T06:10:13.309Z,16.31
2023-03-27T06:11:12.927Z,16.31
2023-03-27T06:12:13.379Z,16.31
2023-03-27T06:13:11.262Z,16.30
2023-03-27T06:14:11.252Z,16.30
2023-03-27T06:15:11.239Z,16.30
2023-03-27T06:16:11.278Z,16.30
2023-03-27T06:17:12.057Z,16.31
2023-03-27T06:18:11.266Z,16.30
2023-03-27T06:19:11.195Z,16.31
2023-03-27T06:20:11.183Z,16.30
2023-03-27T06:21:11.173Z,16.30
2023-03-27T06:22:11.163Z,16.28
2023-03-27T06:23:11.584Z,16.30
2023-03-27T06:24:11.142Z,16.30
2023-03-27T06:25:11.134Z,16.30
2023-03-27T06:26:12.241Z,16.30
2023-03-27T06:27:11.112Z,16.30
2023-03-27T06:28:12.367Z,16.30
2023-03-27T06:29:11.093Z,16.30
2023-03-27T06:30:11.129Z,16.30
2023-03-27T06:31:11.088Z,16.30
2023-03-27T06:32:11.056Z,16.30
2023-03-27T06:33:11.153Z,16.31
2023-03-27T06:34:11.467Z,16.31
2023-03-27T06:35:11.032Z,16.30
2023-03-27T06:36:11.073Z,16.31
2023-03-27T06:37:11.004Z,16.31
2023-03-27T06:38:10.993Z,16.30
2023-03-27T06:39:11.031Z,16.31
2023-03-27T06:40:12.319Z,16.30
2023-03-27T06:41:10.964Z,16.31
2023-03-27T06:42:10.966Z,16.31
2023-03-27T06:43:10.964Z,16.31
2023-03-27T06:44:10.927Z,16.30
2023-03-27T06:45:10.923Z,16.31
2023-03-27T06:46:12.763Z,16.31
2023-03-27T06:47:10.922Z,16.31
2023-03-27T06:48:15.325Z,16.31
2023-03-27T06:49:11.882Z,16.31
2023-03-27T06:50:10.882Z,16.31
2023-03-27T06:51:10.952Z,16.30
2023-03-27T06:52:10.842Z,16.31
2023-03-27T06:53:25.950Z,16.31
2023-03-27T06:54:11.826Z,16.31
2023-03-27T06:55:14.821Z,16.33
2023-03-27T06:56:12.606Z,16.34
2023-03-27T06:57:10.854Z,16.34
2023-03-27T06:58:12.013Z,16.34
2023-03-27T06:59:10.770Z,16.38
2023-03-27T07:00:10.762Z,16.38
2023-03-27T07:01:10.747Z,16.38
2023-03-27T07:02:10.778Z,16.38
2023-03-27T07:03:12.235Z,16.39
2023-03-27T07:04:10.714Z,16.39
2023-03-27T07:05:10.757Z,16.39
2023-03-27T07:06:10.823Z,16.41
2023-03-27T07:07:10.679Z,16.39
2023-03-27T07:08:22.460Z,16.41
2023-03-27T07:09:11.661Z,16.39
2023-03-27T07:10:12.032Z,16.39
2023-03-27T07:11:12.455Z,16.39
2023-03-27T07:12:11.801Z,16.39
2023-03-27T07:13:11.964Z,16.38
2023-03-27T07:14:10.613Z,16.39
2023-03-27T07:15:10.598Z,16.39
2023-03-27T07:16:10.596Z,16.39
2023-03-27T07:17:10.569Z,16.39
2023-03-27T07:18:10.761Z,16.39
2023-03-27T07:19:10.545Z,16.41
2023-03-27T07:20:10.535Z,16.39
2023-03-27T07:21:10.562Z,16.41
2023-03-27T07:22:10.596Z,16.39
2023-03-27T07:23:12.064Z,16.39
2023-03-27T07:24:10.493Z,16.39
2023-03-27T07:25:10.499Z,16.39
2023-03-27T07:26:10.476Z,16.39
2023-03-27T07:27:10.492Z,16.38
2023-03-27T07:28:11.209Z,16.38
2023-03-27T07:29:12.318Z,16.39
2023-03-27T07:30:10.430Z,16.39
2023-03-27T07:31:16.715Z,16.39
2023-03-27T07:32:13.547Z,16.39
2023-03-27T07:33:11.447Z,16.38
2023-03-27T07:34:12.318Z,16.38
2023-03-27T07:35:10.380Z,16.35
2023-03-27T07:36:10.458Z,16.38
2023-03-27T07:37:10.357Z,16.38
2023-03-27T07:38:10.348Z,16.39
2023-03-27T07:39:10.337Z,16.39
2023-03-27T07:40:10.330Z,16.38
2023-03-27T07:41:10.318Z,16.38
2023-03-27T07:42:10.390Z,16.38
2023-03-27T07:43:10.352Z,16.38
2023-03-27T07:44:10.282Z,16.39
2023-03-27T07:45:11.037Z,16.38
2023-03-27T07:46:11.717Z,16.39
2023-03-27T07:47:10.248Z,16.39
2023-03-27T07:48:10.241Z,16.38
2023-03-27T07:49:10.229Z,16.39
2023-03-27T07:50:10.217Z,16.38
2023-03-27T07:51:14.237Z,16.38
2023-03-27T07:52:10.212Z,16.39
2023-03-27T07:53:10.184Z,16.39
2023-03-27T07:54:11.227Z,16.39
2023-03-27T07:55:10.167Z,16.39
2023-03-27T07:56:10.192Z,16.39
2023-03-27T07:57:10.330Z,16.42
2023-03-27T07:58:10.177Z,16.42
2023-03-27T07:59:10.146Z,16.42
2023-03-27T08:00:10.125Z,16.41
2023-03-27T08:01:11.672Z,16.43
2023-03-27T08:02:10.132Z,16.43
2023-03-27T08:03:10.235Z,16.43
2023-03-27T08:04:10.157Z,16.43
2023-03-27T08:05:11.751Z,16.45
2023-03-27T08:06:10.046Z,16.45
2023-03-27T08:07:10.046Z,16.46
2023-03-27T08:08:10.025Z,16.46
2023-03-27T08:09:10.698Z,16.46
2023-03-27T08:10:10.002Z,16.45
2023-03-27T08:11:23.070Z,16.45
2023-03-27T08:12:10.982Z,16.46
2023-03-27T08:13:09.982Z,16.46
2023-03-27T08:14:09.962Z,16.46
2023-03-27T08:15:10.135Z,16.46
2023-03-27T08:16:11.220Z,16.46
2023-03-27T08:17:16.224Z,16.46
2023-03-27T08:18:10.940Z,16.46
2023-03-27T08:19:09.904Z,16.48
2023-03-27T08:20:09.907Z,16.48
2023-03-27T08:21:11.520Z,16.48
2023-03-27T08:22:09.870Z,16.49
2023-03-27T08:23:09.860Z,16.49
2023-03-27T08:24:09.853Z,16.49
2023-03-27T08:25:09.839Z,16.49
2023-03-27T08:26:12.414Z,16.50
2023-03-27T08:27:09.833Z,16.50
2023-03-27T08:28:09.813Z,16.52
2023-03-27T08:29:09.799Z,16.52
2023-03-27T08:30:09.794Z,16.52
2023-03-27T08:31:11.710Z,16.53
2023-03-27T08:32:09.765Z,16.53
2023-03-27T08:33:09.852Z,16.53
2023-03-27T08:34:09.743Z,16.52
2023-03-27T08:35:09.728Z,16.56
2023-03-27T08:36:10.798Z,16.56
2023-03-27T08:37:09.707Z,16.56
2023-03-27T08:38:23.799Z,16.53
2023-03-27T08:39:10.682Z,16.56
2023-03-27T08:40:09.683Z,16.53
2023-03-27T08:41:11.729Z,16.56
2023-03-27T08:42:09.653Z,16.53
2023-03-27T08:43:09.640Z,16.56
2023-03-27T08:44:09.635Z,16.53
2023-03-27T08:45:09.619Z,16.53
2023-03-27T08:46:11.032Z,16.53
2023-03-27T08:47:09.635Z,16.52
2023-03-27T08:48:09.590Z,16.53
2023-03-27T08:49:11.008Z,16.52
2023-03-27T08:50:09.576Z,16.52
2023-03-27T08:51:10.202Z,16.50
2023-03-27T08:52:09.551Z,16.50
2023-03-27T08:53:09.538Z,16.50
2023-03-27T08:54:09.532Z,16.52
2023-03-27T08:55:09.520Z,16.50
2023-03-27T08:56:10.803Z,16.49
2023-03-27T08:57:09.509Z,16.50
2023-03-27T08:58:09.480Z,16.50
2023-03-27T08:59:09.472Z,16.49
2023-03-27T09:00:09.458Z,16.52
2023-03-27T09:01:11.222Z,16.52
2023-03-27T09:02:11.909Z,16.50
2023-03-27T09:03:09.540Z,16.50
2023-03-27T09:04:09.415Z,16.50
2023-03-27T09:05:09.407Z,16.50
2023-03-27T09:06:09.401Z,16.50
2023-03-27T09:07:09.456Z,16.49
2023-03-27T09:08:09.376Z,16.50
2023-03-27T09:09:09.363Z,16.48
2023-03-27T09:10:10.385Z,16.48
2023-03-27T09:11:09.339Z,16.48
2023-03-27T09:12:09.511Z,16.46
2023-03-27T09:13:09.331Z,16.46
2023-03-27T09:14:09.307Z,16.46
2023-03-27T09:15:10.842Z,16.45
2023-03-27T09:16:09.366Z,16.45
2023-03-27T09:17:09.276Z,16.46
2023-03-27T09:18:09.367Z,16.45
2023-03-27T09:19:09.254Z,16.43
2023-03-27T09:20:11.398Z,16.43
2023-03-27T09:21:09.235Z,16.43
2023-03-27T09:22:10.756Z,16.42
2023-03-27T09:23:09.219Z,16.42
2023-03-27T09:24:09.198Z,16.43
2023-03-27T09:25:09.189Z,16.43
2023-03-27T09:26:09.177Z,16.43
2023-03-27T09:27:11.248Z,16.43
2023-03-27T09:28:10.892Z,16.43
2023-03-27T09:29:09.159Z,16.45
2023-03-27T09:30:09.138Z,16.43
2023-03-27T09:31:09.161Z,16.45
2023-03-27T09:32:09.117Z,16.43
2023-03-27T09:33:10.456Z,16.43
2023-03-27T09:34:09.120Z,16.42
2023-03-27T09:35:09.098Z,16.45
2023-03-27T09:36:09.091Z,16.43
2023-03-27T09:37:09.061Z,16.45
2023-03-27T09:38:10.503Z,16.45
2023-03-27T09:39:09.043Z,16.43
2023-03-27T09:40:09.031Z,16.43
2023-03-27T09:41:09.045Z,16.45
2023-03-27T09:42:09.017Z,16.43
2023-03-27T09:43:08.996Z,16.43
2023-03-27T09:44:08.989Z,16.43
2023-03-27T09:45:08.974Z,16.43
2023-03-27T09:46:10.231Z,16.43
2023-03-27T09:47:08.966Z,16.42
2023-03-27T09:48:09.560Z,16.43
2023-03-27T09:49:08.934Z,16.43
2023-03-27T09:50:08.974Z,16.42
2023-03-27T09:51:08.915Z,16.42
2023-03-27T09:52:08.904Z,16.43
2023-03-27T09:53:08.897Z,16.43
2023-03-27T09:54:10.082Z,16.43
2023-03-27T09:55:10.755Z,16.42
2023-03-27T09:56:08.857Z,16.42
2023-03-27T09:57:08.877Z,16.42
2023-03-27T09:58:08.832Z,16.42
2023-03-27T09:59:08.823Z,16.42
2023-03-27T10:00:10.046Z,16.42
2023-03-27T10:01:08.833Z,16.43
2023-03-27T10:02:09.519Z,16.43
2023-03-27T10:03:08.843Z,16.42
2023-03-27T10:04:08.818Z,16.42
2023-03-27T10:05:08.760Z,16.42
2023-03-27T10:06:08.782Z,16.41
2023-03-27T10:07:08.740Z,16.41
2023-03-27T10:08:08.961Z,16.41
2023-03-27T10:09:08.729Z,16.42
2023-03-27T10:10:08.712Z,16.41
2023-03-27T10:11:09.312Z,16.41
2023-03-27T10:12:08.680Z,16.41
2023-03-27T10:13:08.707Z,16.39
2023-03-27T10:14:08.656Z,16.41
2023-03-27T10:15:08.647Z,16.41
2023-03-27T10:16:09.914Z,16.41
2023-03-27T10:17:08.704Z,16.42
2023-03-27T10:18:08.658Z,16.42
2023-03-27T10:19:08.638Z,16.42
2023-03-27T10:20:08.600Z,16.43
2023-03-27T10:21:10.094Z,16.43
2023-03-27T10:22:08.599Z,16.42
2023-03-27T10:23:09.601Z,16.42
2023-03-27T10:24:09.980Z,16.42
2023-03-27T10:25:08.541Z,16.41
2023-03-27T10:26:08.531Z,16.41
2023-03-27T10:27:10.300Z,16.42
2023-03-27T10:28:08.509Z,16.42
2023-03-27T10:29:08.497Z,16.42
2023-03-27T10:30:09.763Z,16.41
2023-03-27T10:31:08.487Z,16.41
2023-03-27T10:32:08.600Z,16.42
2023-03-27T10:33:08.545Z,16.42
2023-03-27T10:34:08.469Z,16.41
2023-03-27T10:35:08.431Z,16.41
2023-03-27T10:36:08.566Z,16.43
2023-03-27T10:37:09.557Z,16.42
2023-03-27T10:38:08.572Z,16.42
2023-03-27T10:39:08.428Z,16.41
2023-03-27T10:40:08.394Z,16.41
2023-03-27T10:41:08.367Z,16.42
2023-03-27T10:42:09.733Z,16.41
2023-03-27T10:43:08.884Z,16.43
2023-03-27T10:44:08.339Z,16.42
2023-03-27T10:45:08.321Z,16.43
2023-03-27T10:46:08.333Z,16.45
2023-03-27T10:47:09.756Z,16.45
2023-03-27T10:48:09.591Z,16.46
2023-03-27T10:49:08.278Z,16.46
2023-03-27T10:50:08.278Z,16.48
2023-03-27T10:51:08.259Z,16.48
2023-03-27T10:52:08.246Z,16.48
2023-03-27T10:53:09.987Z,16.46
2023-03-27T10:54:08.273Z,16.49
2023-03-27T10:55:08.237Z,16.49
2023-03-27T10:56:08.206Z,16.50
2023-03-27T10:57:08.245Z,16.50
2023-03-27T10:58:10.256Z,16.49
2023-03-27T10:59:08.172Z,16.50
2023-03-27T11:00:08.161Z,16.50
2023-03-27T11:01:08.211Z,16.50
2023-03-27T11:02:09.876Z,16.50
2023-03-27T11:03:09.935Z,16.50
2023-03-27T11:04:08.244Z,16.50
2023-03-27T11:05:08.109Z,16.49
2023-03-27T11:06:08.090Z,16.49
2023-03-27T11:07:08.081Z,16.48
2023-03-27T11:08:09.733Z,16.49
2023-03-27T11:09:10.166Z,16.48
2023-03-27T11:10:08.048Z,16.46
2023-03-27T11:11:08.055Z,16.46
2023-03-27T11:12:08.040Z,16.48
2023-03-27T11:13:09.044Z,16.46
2023-03-27T11:14:08.036Z,16.46
2023-03-27T11:15:07.995Z,16.45
2023-03-27T11:16:07.979Z,16.46
2023-03-27T11:17:09.881Z,16.45
2023-03-27T11:18:08.104Z,16.46
2023-03-27T11:19:07.957Z,16.46
2023-03-27T11:20:07.938Z,16.46
2023-03-27T11:21:07.933Z,16.46
2023-03-27T11:22:07.975Z,16.45
2023-03-27T11:23:07.905Z,16.45
2023-03-27T11:24:07.900Z,16.45
2023-03-27T11:25:08.532Z,16.45
2023-03-27T11:26:07.871Z,16.46
2023-03-27T11:27:07.865Z,16.46
2023-03-27T11:28:08.477Z,16.45
2023-03-27T11:29:07.846Z,16.45
2023-03-27T11:30:07.840Z,16.46
2023-03-27T11:31:12.906Z,16.48
2023-03-27T11:32:08.812Z,16.48
2023-03-27T11:33:09.253Z,16.48
2023-03-27T11:34:09.324Z,16.49
2023-03-27T11:35:07.776Z,16.48
2023-03-27T11:36:07.800Z,16.48
2023-03-27T11:37:09.188Z,16.50
2023-03-27T11:38:07.747Z,16.50
2023-03-27T11:39:07.743Z,16.50
2023-03-27T11:40:07.730Z,16.49
2023-03-27T11:41:07.741Z,16.50
2023-03-27T11:42:07.891Z,16.50
2023-03-27T11:43:08.996Z,16.49
2023-03-27T11:44:07.681Z,16.50
2023-03-27T11:45:07.690Z,16.49
2023-03-27T11:46:07.676Z,16.49
2023-03-27T11:47:07.664Z,16.49
2023-03-27T11:48:10.804Z,16.48
2023-03-27T11:49:07.631Z,16.48
2023-03-27T11:50:07.616Z,16.49
2023-03-27T11:51:07.617Z,16.48
2023-03-27T11:52:07.599Z,16.46
2023-03-27T11:53:08.939Z,16.48
2023-03-27T11:54:07.581Z,16.45
2023-03-27T11:55:07.588Z,16.45
2023-03-27T11:56:07.551Z,16.45
2023-03-27T11:57:07.740Z,16.46
2023-03-27T11:58:07.532Z,16.45
2023-03-27T11:59:09.395Z,16.43
2023-03-27T12:00:07.512Z,16.45
2023-03-27T12:01:07.496Z,16.45
2023-03-27T12:02:07.560Z,16.43
2023-03-27T12:03:07.571Z,16.45
2023-03-27T12:04:09.305Z,16.46
2023-03-27T12:05:08.382Z,16.45
2023-03-27T12:06:07.445Z,16.45
2023-03-27T12:07:09.844Z,16.46
2023-03-27T12:08:07.425Z,16.48
2023-03-27T12:09:07.410Z,16.46
2023-03-27T12:10:07.403Z,16.48
2023-03-27T12:11:07.941Z,16.49
2023-03-27T12:12:07.385Z,16.49
2023-03-27T12:13:07.394Z,16.49
2023-03-27T12:14:17.309Z,16.49
2023-03-27T12:15:09.891Z,16.49
2023-03-27T12:16:07.346Z,16.49
2023-03-27T12:17:09.568Z,16.50
2023-03-27T12:18:07.386Z,16.50
2023-03-27T12:19:17.386Z,16.50
2023-03-27T12:20:08.291Z,16.52
2023-03-27T12:21:08.284Z,16.52
2023-03-27T12:22:17.501Z,16.53
2023-03-27T12:23:08.260Z,16.53
2023-03-27T12:24:07.247Z,16.56
2023-03-27T12:25:07.237Z,16.56
2023-03-27T12:26:07.708Z,16.57
2023-03-27T12:27:07.226Z,16.56
2023-03-27T12:28:08.943Z,16.57
2023-03-27T12:29:23.161Z,16.57
2023-03-27T12:30:09.703Z,16.58
2023-03-27T12:31:07.179Z,16.57
2023-03-27T12:32:07.236Z,16.58
2023-03-27T12:33:07.223Z,16.58
2023-03-27T12:34:07.150Z,16.58
2023-03-27T12:35:08.589Z,16.61
2023-03-27T12:36:07.148Z,16.60
2023-03-27T12:37:08.566Z,16.58
2023-03-27T12:38:07.104Z,16.61
2023-03-27T12:39:08.651Z,16.60
2023-03-27T12:40:07.094Z,16.60
2023-03-27T12:41:07.065Z,16.61
2023-03-27T12:42:07.061Z,16.61
2023-03-27T12:43:07.042Z,16.60
2023-03-27T12:44:07.039Z,16.61
2023-03-27T12:45:09.146Z,16.60
2023-03-27T12:46:07.211Z,16.60
2023-03-27T12:47:09.023Z,16.60
2023-03-27T12:48:07.006Z,16.61
2023-03-27T12:49:09.166Z,16.60
2023-03-27T12:50:06.987Z,16.60
2023-03-27T12:51:06.954Z,16.58
2023-03-27T12:52:06.954Z,16.60